Startpagina
METAR-TAF:

METAR-TAF

Vliegvelden :

Brussels South Charleroi Airport

Charleroi, België

breedte: 50-28N, lengte: 004-27E, hoogte: 187 m

Actueel weer

Dit bericht is 24 minuten geleden gemaakt, om 05:20 UTC
Wind 8 kt uit het oostnoordoosten
Temperatuur 1°C
Vochtigheid 80%
Druk 1027 hPa
Zicht 10 km of meer
geen wolken onder 1500 m en geen cumulonimbus

METAR: EBCI 180520Z 07008KT CAVOK 01/M02 Q1027 NOSIG

Tijdstip: 06:44 (05:44 UTC)

Verwachting

Dit bericht is 34 minuten geleden gemaakt, om 05:10 UTC
Verwachting geldig van 18 om 06 UTC tot 19 om 12 UTC
Wind 12 kt uit het oostnoordoosten
Zicht 10 km of meer
geen wolken onder 1500 m en geen cumulonimbus
Tijdelijke
van 19 om 05 UTC tot 19 om 09 UTC
Zicht: 4000 m
Gebroken wolken op 400 ft
lichte motregen, nevel

TAF: EBCI 180510Z 1806/1912 06012KT CAVOK TEMPO 1905/1909 4000 -DZ BR BKN004

Waarnemingen en weersverwachtingen van meer dan 4000 vliegvelden (METAR en TAF).

De beschikbare stations zijn de gele en rode punten op de kaart.

Ga met uw muis naar het station om de naam te zien.

Klik dan om waarnemingen en weersverwachtingen te zien.

kaart wijzigen: klik op de groene knoppen met een zwart kruis om in te zoomen, op de groene knop met een streepje om uit te zoomen of op de groene pijlen voor aangrenzende kaarten.


METAR-TAF: